Time;durP1;ratioP1;P1;durP2;ratioP2;P2;SDS_P1;SDS_P2;PMS_P1;PMS_P2;Temp;Humidity;BMP_temperature;BMP_pressure;BME280_temperature;BME280_humidity;BME280_pressure;Samples;Min_cycle;Max_cycle;Signal;HPM_P1;HPM_P2
2024/03/11 00:00:47;;;;;;;33.63;30.02;;;11.20;94.60;;;;;;2077120;28;20021;-66
2024/03/11 00:01:49;;;;;;;37.53;31.50;;;11.20;94.60;;;;;;2085545;28;20057;-65
2024/03/11 00:02:50;;;;;;;35.60;31.73;;;11.20;94.60;;;;;;2085388;28;20158;-65
2024/03/11 00:03:53;;;;;;;34.70;30.90;;;11.20;94.60;;;;;;2086727;28;20029;-65
2024/03/11 00:04:54;;;;;;;35.88;32.08;;;11.20;94.60;;;;;;2085761;28;20013;-65
2024/03/11 00:05:55;;;;;;;34.47;30.55;;;11.20;94.70;;;;;;2085208;28;20654;-63
2024/03/11 00:06:59;;;;;;;38.55;31.95;;;11.20;94.70;;;;;;2084840;28;20454;-65
2024/03/11 00:08:04;;;;;;;34.92;31.00;;;11.20;94.80;;;;;;2084183;28;20112;-67
2024/03/11 00:09:15;;;;;;;33.97;30.38;;;11.20;94.80;;;;;;2079481;28;20063;-65
2024/03/11 00:10:18;;;;;;;34.47;30.77;;;11.20;94.90;;;;;;2081449;28;20445;-65
2024/03/11 00:11:19;;;;;;;36.13;32.17;;;11.20;94.80;;;;;;2085996;28;20106;-65
2024/03/11 00:12:22;;;;;;;34.28;30.58;;;11.20;94.90;;;;;;2082761;28;20018;-65
2024/03/11 00:13:23;;;;;;;32.70;29.23;;;11.20;94.90;;;;;;2084835;28;20124;-65
2024/03/11 00:14:33;;;;;;;33.75;29.42;;;11.20;94.80;;;;;;2083894;28;20025;-65
2024/03/11 00:15:34;;;;;;;32.70;29.17;;;11.30;94.90;;;;;;2082705;28;20751;-65
2024/03/11 00:16:35;;;;;;;32.85;29.20;;;11.30;94.80;;;;;;2085443;28;20044;-65
2024/03/11 00:17:36;;;;;;;35.05;31.15;;;11.30;94.80;;;;;;2084014;28;20056;-65
2024/03/11 00:18:41;;;;;;;35.08;31.27;;;11.30;94.80;;;;;;2083817;28;20036;-65
2024/03/11 00:19:42;;;;;;;35.65;31.67;;;11.30;94.90;;;;;;2084577;28;20069;-65
2024/03/11 00:20:48;;;;;;;34.15;30.42;;;11.30;94.90;;;;;;2083562;28;20033;-66
2024/03/11 00:21:56;;;;;;;36.42;32.55;;;11.30;95.00;;;;;;2083946;28;20154;-66
2024/03/11 00:22:57;;;;;;;35.67;31.52;;;11.30;95.10;;;;;;2084882;28;20354;-66
2024/03/11 00:23:58;;;;;;;31.48;28.08;;;11.20;95.10;;;;;;2084079;28;20024;-67
2024/03/11 00:24:58;;;;;;;36.33;32.20;;;11.20;95.10;;;;;;2085230;28;20120;-65
2024/03/11 00:25:59;;;;;;;29.20;25.85;;;11.30;95.20;;;;;;2086437;28;20025;-67
2024/03/11 00:27:02;;;;;;;34.28;30.60;;;11.30;95.20;;;;;;2078407;28;20112;-65
2024/03/11 00:28:02;;;;;;;38.03;31.50;;;11.30;95.20;;;;;;2073099;28;20097;-64
2024/03/11 00:29:04;;;;;;;35.38;30.65;;;11.30;95.30;;;;;;2077346;28;20033;-66
2024/03/11 00:30:08;;;;;;;32.95;29.35;;;11.30;95.40;;;;;;2084760;28;20024;-66
2024/03/11 00:31:11;;;;;;;31.77;27.85;;;11.30;95.40;;;;;;2084328;28;20087;-66
2024/03/11 00:32:14;;;;;;;34.28;30.70;;;11.30;95.40;;;;;;2083142;28;20053;-64
2024/03/11 00:33:17;;;;;;;33.97;30.27;;;11.30;95.30;;;;;;2082874;28;20064;-64
2024/03/11 00:34:18;;;;;;;33.95;30.20;;;11.30;95.40;;;;;;2083584;28;20078;-65
2024/03/11 00:35:19;;;;;;;41.08;33.35;;;11.30;95.50;;;;;;2085249;28;20071;-64
2024/03/11 00:36:20;;;;;;;35.53;31.80;;;11.30;95.70;;;;;;2083616;28;20064;-64
2024/03/11 00:37:24;;;;;;;35.08;31.38;;;11.30;95.70;;;;;;2086109;28;20102;-65
2024/03/11 00:38:24;;;;;;;32.97;29.52;;;11.30;95.70;;;;;;2085748;28;20024;-65
2024/03/11 00:39:25;;;;;;;35.97;32.22;;;11.30;95.70;;;;;;2084904;28;20110;-66
2024/03/11 00:40:26;;;;;;;30.33;27.05;;;11.30;95.80;;;;;;2085172;28;20037;-66
2024/03/11 00:41:27;;;;;;;32.58;29.02;;;11.30;95.80;;;;;;2083187;28;20083;-66
2024/03/11 00:42:27;;;;;;;31.10;27.42;;;11.30;95.80;;;;;;2086048;28;20451;-65
2024/03/11 00:43:28;;;;;;;33.35;29.67;;;11.30;95.70;;;;;;2085399;28;20029;-65
2024/03/11 00:44:29;;;;;;;37.35;32.03;;;11.30;95.80;;;;;;2083081;28;20112;-65
2024/03/11 00:45:29;;;;;;;34.00;30.33;;;11.30;96.00;;;;;;2085692;28;20071;-65
2024/03/11 00:46:30;;;;;;;29.17;26.15;;;11.30;96.20;;;;;;2082527;28;20052;-65
2024/03/11 00:47:30;;;;;;;30.73;27.48;;;11.30;96.10;;;;;;2083923;28;20075;-65
2024/03/11 00:48:31;;;;;;;36.13;32.30;;;11.30;96.20;;;;;;2086139;28;20041;-64
2024/03/11 00:49:35;;;;;;;36.83;32.50;;;11.30;96.30;;;;;;2084560;28;20025;-64
2024/03/11 00:50:35;;;;;;;35.53;31.42;;;11.30;96.40;;;;;;2085181;28;20021;-65
2024/03/11 00:51:36;;;;;;;35.17;31.38;;;11.30;96.50;;;;;;2084902;28;20036;-66
2024/03/11 00:52:39;;;;;;;36.88;32.88;;;11.30;96.70;;;;;;2084774;28;20612;-64
2024/03/11 00:53:40;;;;;;;36.40;32.55;;;11.30;96.90;;;;;;2085162;28;20124;-66
2024/03/11 00:54:41;;;;;;;36.65;32.13;;;11.30;97.00;;;;;;2083621;28;20053;-66
2024/03/11 00:55:41;;;;;;;34.65;31.00;;;11.30;97.10;;;;;;2084853;28;20047;-65
2024/03/11 00:56:42;;;;;;;38.08;31.38;;;11.30;97.20;;;;;;2082522;28;21454;-64
2024/03/11 00:57:43;;;;;;;35.38;31.55;;;11.30;97.20;;;;;;2084926;28;20487;-64
2024/03/11 00:58:43;;;;;;;36.47;32.50;;;11.30;97.30;;;;;;2086041;28;20401;-64
2024/03/11 00:59:47;;;;;;;37.65;33.38;;;11.30;97.50;;;;;;2084515;28;20128;-67
2024/03/11 01:00:47;;;;;;;33.88;30.35;;;11.30;97.70;;;;;;2086199;28;20033;-64
2024/03/11 01:01:48;;;;;;;38.25;33.45;;;11.30;97.80;;;;;;2084341;28;20097;-65
2024/03/11 01:02:52;;;;;;;37.78;33.75;;;11.30;97.90;;;;;;2083106;28;20020;-65
2024/03/11 01:03:53;;;;;;;36.45;31.92;;;11.30;98.10;;;;;;2085890;28;20028;-66
2024/03/11 01:04:54;;;;;;;39.92;34.42;;;11.30;98.10;;;;;;2084244;28;20501;-64
2024/03/11 01:05:58;;;;;;;34.45;30.23;;;11.20;98.20;;;;;;2082455;28;20032;-65
2024/03/11 01:06:59;;;;;;;39.25;34.47;;;11.20;98.30;;;;;;2084637;28;20018;-64
2024/03/11 01:08:00;;;;;;;39.28;35.08;;;11.20;98.40;;;;;;2086428;28;20377;-66
2024/03/11 01:09:02;;;;;;;38.67;34.47;;;11.20;98.70;;;;;;2083826;28;20063;-64
2024/03/11 01:10:03;;;;;;;38.88;33.55;;;11.20;98.80;;;;;;2086463;28;20063;-65
2024/03/11 01:11:04;;;;;;;37.55;33.50;;;11.20;98.90;;;;;;2085009;28;20030;-65
2024/03/11 01:12:05;;;;;;;39.08;34.85;;;11.20;99.10;;;;;;2087296;28;20105;-66
2024/03/11 01:13:08;;;;;;;38.88;34.40;;;11.20;99.20;;;;;;2084169;28;20086;-65
2024/03/11 01:14:09;;;;;;;41.55;35.63;;;11.20;99.50;;;;;;2085604;28;20030;-65
2024/03/11 01:15:10;;;;;;;40.67;33.97;;;11.20;99.60;;;;;;2086968;28;20493;-65
2024/03/11 01:16:11;;;;;;;34.78;31.05;;;11.20;99.70;;;;;;2087256;28;20056;-65
2024/03/11 01:17:11;;;;;;;37.72;33.72;;;11.20;99.60;;;;;;2086682;28;20462;-64
2024/03/11 01:18:14;;;;;;;37.20;33.38;;;11.20;99.90;;;;;;2085356;28;20037;-65
2024/03/11 01:19:18;;;;;;;36.95;32.95;;;11.20;99.90;;;;;;2085106;28;20032;-64
2024/03/11 01:20:20;;;;;;;38.47;32.90;;;11.20;99.90;;;;;;2086818;28;20372;-64
2024/03/11 01:21:21;;;;;;;40.03;35.47;;;11.20;99.90;;;;;;2088865;28;20021;-65
2024/03/11 01:22:22;;;;;;;36.00;32.10;;;11.20;99.90;;;;;;2086245;28;20038;-65
2024/03/11 01:23:22;;;;;;;35.97;31.85;;;11.10;99.90;;;;;;2086123;28;20057;-65
2024/03/11 01:24:24;;;;;;;35.67;31.23;;;11.10;99.90;;;;;;2087114;28;20035;-64
2024/03/11 01:25:24;;;;;;;34.50;30.73;;;11.10;99.90;;;;;;2086823;28;20030;-64
2024/03/11 01:26:26;;;;;;;34.03;30.42;;;11.10;99.90;;;;;;2085646;28;20033;-65
2024/03/11 01:27:30;;;;;;;37.08;31.88;;;11.10;99.90;;;;;;2086413;28;20052;-64
2024/03/11 01:28:30;;;;;;;35.10;31.15;;;11.10;99.90;;;;;;2084898;28;20022;-65
2024/03/11 01:29:33;;;;;;;32.88;29.40;;;11.10;99.90;;;;;;2086753;28;20032;-64
2024/03/11 01:30:35;;;;;;;31.27;27.98;;;11.10;99.90;;;;;;2084646;28;20028;-65
2024/03/11 01:31:38;;;;;;;34.97;31.17;;;11.10;99.90;;;;;;2086106;28;20028;-65
2024/03/11 01:32:39;;;;;;;32.17;28.42;;;11.10;99.90;;;;;;2086951;28;20047;-65
2024/03/11 01:33:40;;;;;;;33.33;29.67;;;11.10;99.90;;;;;;2087623;28;20029;-65
2024/03/11 01:34:44;;;;;;;39.85;35.55;;;11.10;99.90;;;;;;2086310;28;20482;-64
2024/03/11 01:35:44;;;;;;;35.45;30.30;;;11.10;99.90;;;;;;2085468;28;20030;-65
2024/03/11 01:36:45;;;;;;;38.03;33.67;;;11.10;99.90;;;;;;2084652;28;20030;-64
2024/03/11 01:37:45;;;;;;;37.05;33.13;;;11.10;99.90;;;;;;2085718;28;20397;-66
2024/03/11 01:38:46;;;;;;;41.83;35.75;;;11.10;99.90;;;;;;2087778;28;20035;-65
2024/03/11 01:39:46;;;;;;;40.40;34.95;;;11.10;99.90;;;;;;2086235;28;20033;-65
2024/03/11 01:40:47;;;;;;;36.67;32.65;;;11.10;99.90;;;;;;2084106;28;20074;-65
2024/03/11 01:41:48;;;;;;;38.35;34.25;;;11.10;99.90;;;;;;2085230;28;20048;-65
2024/03/11 01:42:50;;;;;;;35.95;32.05;;;11.10;99.90;;;;;;2084486;28;20366;-65
2024/03/11 01:43:50;;;;;;;36.45;32.17;;;11.00;99.90;;;;;;2085624;28;20021;-64
2024/03/11 01:44:52;;;;;;;35.70;31.80;;;11.00;99.90;;;;;;2085045;28;20106;-65
2024/03/11 01:45:53;;;;;;;39.42;35.13;;;11.00;99.90;;;;;;2085644;28;20030;-64
2024/03/11 01:46:54;;;;;;;33.80;30.20;;;11.00;99.90;;;;;;2085212;28;20112;-64
2024/03/11 01:47:55;;;;;;;39.17;33.38;;;11.00;99.90;;;;;;2078628;28;20080;-64
2024/03/11 01:48:55;;;;;;;33.67;29.95;;;11.00;99.90;;;;;;2076694;28;20059;-64
2024/03/11 01:50:00;;;;;;;36.13;32.22;;;11.00;99.90;;;;;;2080265;28;20702;-64
2024/03/11 01:51:03;;;;;;;35.28;31.48;;;11.00;99.90;;;;;;2076720;28;20552;-65
2024/03/11 01:52:07;;;;;;;33.45;29.83;;;11.00;99.90;;;;;;2086113;28;20477;-65
2024/03/11 01:53:09;;;;;;;32.35;28.83;;;11.00;99.90;;;;;;2085109;28;20063;-65
2024/03/11 01:54:11;;;;;;;32.85;28.95;;;11.00;99.90;;;;;;2086884;28;20051;-65
2024/03/11 01:55:13;;;;;;;33.78;30.05;;;11.00;99.90;;;;;;2078172;28;20433;-65
2024/03/11 01:56:15;;;;;;;38.55;34.45;;;11.00;99.90;;;;;;2077489;28;20041;-64
2024/03/11 01:57:16;;;;;;;33.40;29.80;;;11.00;99.90;;;;;;2084311;28;20034;-65
2024/03/11 01:58:20;;;;;;;38.45;34.33;;;11.00;99.90;;;;;;2084791;28;20469;-65
2024/03/11 01:59:23;;;;;;;40.83;35.70;;;11.00;99.90;;;;;;2086779;28;20071;-65
2024/03/11 02:00:27;;;;;;;40.63;36.00;;;11.00;99.90;;;;;;2086550;28;20017;-65
2024/03/11 02:01:27;;;;;;;38.78;34.55;;;11.00;99.90;;;;;;2085709;28;20073;-64
2024/03/11 02:02:29;;;;;;;35.20;31.45;;;11.00;99.90;;;;;;2088984;28;20074;-65
2024/03/11 02:03:31;;;;;;;34.35;30.35;;;11.00;99.90;;;;;;2085747;28;20021;-64
2024/03/11 02:04:31;;;;;;;37.03;32.78;;;11.00;99.90;;;;;;2084799;28;20032;-65
2024/03/11 02:05:32;;;;;;;38.20;33.88;;;10.90;99.90;;;;;;2083566;28;20021;-64
2024/03/11 02:06:33;;;;;;;38.45;34.17;;;10.90;99.90;;;;;;2086261;28;20021;-65
2024/03/11 02:07:36;;;;;;;42.88;36.72;;;10.90;99.90;;;;;;2084856;28;20606;-64
2024/03/11 02:08:37;;;;;;;37.33;33.35;;;10.90;99.90;;;;;;2087626;28;20022;-65
2024/03/11 02:09:39;;;;;;;37.92;33.83;;;10.90;99.90;;;;;;2086105;28;20025;-64
2024/03/11 02:10:40;;;;;;;35.67;31.92;;;10.90;99.90;;;;;;2086554;28;20400;-64
2024/03/11 02:11:40;;;;;;;36.40;32.47;;;10.90;99.90;;;;;;2085244;28;20025;-65
2024/03/11 02:12:47;;;;;;;40.83;35.45;;;10.90;99.90;;;;;;2085724;28;20090;-65
2024/03/11 02:13:50;;;;;;;32.78;29.27;;;10.90;99.90;;;;;;2086894;28;20056;-64
2024/03/11 02:14:51;;;;;;;32.55;28.92;;;10.90;99.90;;;;;;2086556;28;20035;-65
2024/03/11 02:15:52;;;;;;;35.83;31.35;;;10.90;99.90;;;;;;2084935;28;20021;-65
2024/03/11 02:16:52;;;;;;;40.78;35.42;;;10.90;99.90;;;;;;2084814;28;20078;-65
2024/03/11 02:17:54;;;;;;;37.30;32.00;;;10.90;99.90;;;;;;2086206;28;20029;-65
2024/03/11 02:18:55;;;;;;;34.10;30.45;;;10.90;99.90;;;;;;2086183;28;20021;-64
2024/03/11 02:19:56;;;;;;;40.25;35.95;;;10.90;99.90;;;;;;2084740;28;20079;-65
2024/03/11 02:20:56;;;;;;;40.53;36.13;;;10.90;99.90;;;;;;2084537;28;20075;-65
2024/03/11 02:21:57;;;;;;;34.50;30.80;;;10.90;99.90;;;;;;2086358;28;20066;-64
2024/03/11 02:23:06;;;;;;;37.17;33.25;;;10.90;99.90;;;;;;2084329;28;20064;-66
2024/03/11 02:24:07;;;;;;;39.00;34.80;;;10.90;99.90;;;;;;2085492;28;20021;-64
2024/03/11 02:25:09;;;;;;;38.33;33.92;;;10.90;99.90;;;;;;2086168;28;20479;-65
2024/03/11 02:26:12;;;;;;;39.55;34.35;;;10.90;99.90;;;;;;2080783;28;20385;-64
2024/03/11 02:27:13;;;;;;;38.25;34.08;;;10.90;99.90;;;;;;2079984;28;20397;-64
2024/03/11 02:28:13;;;;;;;34.42;29.05;;;10.80;99.90;;;;;;2084758;28;20026;-64
2024/03/11 02:29:16;;;;;;;37.72;33.78;;;10.80;99.90;;;;;;2084150;28;20071;-65
2024/03/11 02:30:17;;;;;;;38.20;34.00;;;10.90;99.90;;;;;;2086174;28;20017;-64
2024/03/11 02:31:17;;;;;;;32.78;29.33;;;10.90;99.90;;;;;;2085882;28;20066;-65
2024/03/11 02:32:18;;;;;;;31.48;28.17;;;10.80;99.90;;;;;;2085301;28;20409;-64
2024/03/11 02:33:19;;;;;;;38.72;34.60;;;10.80;99.90;;;;;;2086566;28;20522;-64
2024/03/11 02:34:20;;;;;;;35.25;31.50;;;10.80;99.90;;;;;;2086100;28;20025;-64
2024/03/11 02:35:21;;;;;;;38.65;32.28;;;10.80;99.90;;;;;;2085829;28;20029;-64
2024/03/11 02:36:22;;;;;;;42.42;36.95;;;10.90;99.90;;;;;;2083532;28;20108;-65
2024/03/11 02:37:22;;;;;;;45.70;39.42;;;10.80;99.90;;;;;;2084656;28;20022;-65
2024/03/11 02:38:23;;;;;;;45.38;38.92;;;10.80;99.90;;;;;;2083737;28;20021;-64
2024/03/11 02:39:27;;;;;;;48.03;40.55;;;10.80;99.90;;;;;;2083817;28;20029;-64
2024/03/11 02:40:29;;;;;;;45.63;40.33;;;10.80;99.90;;;;;;2086672;28;20028;-65
2024/03/11 02:41:32;;;;;;;46.28;40.88;;;10.80;99.90;;;;;;2083093;28;20044;-64
2024/03/11 02:42:36;;;;;;;49.78;41.50;;;10.80;99.90;;;;;;2084427;28;20013;-65
2024/03/11 02:43:36;;;;;;;44.72;38.95;;;10.80;99.90;;;;;;2087679;28;20056;-64
2024/03/11 02:44:38;;;;;;;48.95;41.05;;;10.80;99.90;;;;;;2085613;28;20036;-64
2024/03/11 02:45:39;;;;;;;46.67;41.28;;;10.80;99.90;;;;;;2085402;28;20025;-64
2024/03/11 02:46:43;;;;;;;50.78;42.45;;;10.70;99.90;;;;;;2085887;28;20024;-64
2024/03/11 02:47:44;;;;;;;46.03;40.47;;;10.80;99.90;;;;;;2085013;28;20036;-64
2024/03/11 02:48:44;;;;;;;44.85;39.58;;;10.70;99.90;;;;;;2086488;28;20044;-64
2024/03/11 02:49:45;;;;;;;47.20;40.75;;;10.70;99.90;;;;;;2085077;28;20123;-64
2024/03/11 02:50:45;;;;;;;48.35;41.47;;;10.70;99.90;;;;;;2085813;28;20025;-64
2024/03/11 02:51:46;;;;;;;48.85;40.78;;;10.70;99.90;;;;;;2083079;28;20485;-64
2024/03/11 02:52:47;;;;;;;49.80;41.10;;;10.70;99.90;;;;;;2084364;28;20508;-66
2024/03/11 02:53:47;;;;;;;41.92;37.33;;;10.70;99.90;;;;;;2083485;28;20489;-65
2024/03/11 02:54:54;;;;;;;50.10;41.10;;;10.70;99.90;;;;;;2085079;28;20036;-64
2024/03/11 02:55:54;;;;;;;47.35;41.67;;;10.70;99.90;;;;;;2083954;28;20040;-64
2024/03/11 02:56:55;;;;;;;45.25;40.33;;;10.70;99.90;;;;;;2086700;28;20029;-64
2024/03/11 02:57:55;;;;;;;47.38;40.92;;;10.70;99.90;;;;;;2086057;28;20040;-64
2024/03/11 02:58:56;;;;;;;48.72;40.67;;;10.70;99.90;;;;;;2085304;28;20013;-64
2024/03/11 02:59:56;;;;;;;47.67;42.05;;;10.70;99.90;;;;;;2085149;28;20034;-64
2024/03/11 03:00:59;;;;;;;46.92;41.13;;;10.70;99.90;;;;;;2084300;28;20488;-66
2024/03/11 03:02:00;;;;;;;39.08;34.80;;;10.70;99.90;;;;;;2085225;28;20041;-65
2024/03/11 03:03:00;;;;;;;48.40;40.65;;;10.70;99.90;;;;;;2086792;28;20029;-65
2024/03/11 03:04:01;;;;;;;53.47;41.50;;;10.70;99.90;;;;;;2086787;28;20416;-65
2024/03/11 03:05:06;;;;;;;38.85;34.65;;;10.70;99.90;;;;;;2085500;28;20021;-64
2024/03/11 03:06:06;;;;;;;45.15;40.20;;;10.70;99.90;;;;;;2085538;28;20885;-64
2024/03/11 03:07:08;;;;;;;48.45;43.05;;;10.70;99.90;;;;;;2085332;28;20025;-64
2024/03/11 03:08:09;;;;;;;46.53;41.50;;;10.70;99.90;;;;;;2084122;28;20401;-65
2024/03/11 03:09:12;;;;;;;46.33;40.05;;;10.70;99.90;;;;;;2086640;28;20048;-65
2024/03/11 03:10:13;;;;;;;39.92;35.45;;;10.70;99.90;;;;;;2083854;28;20128;-64
2024/03/11 03:11:14;;;;;;;46.70;40.65;;;10.70;99.90;;;;;;2085556;28;20378;-65
2024/03/11 03:12:14;;;;;;;41.30;36.90;;;10.60;99.90;;;;;;2084353;28;20036;-64
2024/03/11 03:13:15;;;;;;;48.95;42.55;;;10.70;99.90;;;;;;2086140;28;20078;-65
2024/03/11 03:14:16;;;;;;;49.22;42.63;;;10.70;99.90;;;;;;2085329;28;20041;-65
2024/03/11 03:15:17;;;;;;;42.25;37.67;;;10.70;99.90;;;;;;2086094;28;20151;-64
2024/03/11 03:16:17;;;;;;;47.25;41.47;;;10.70;99.90;;;;;;2085137;28;20108;-67
2024/03/11 03:17:18;;;;;;;49.85;43.78;;;10.70;99.90;;;;;;2083339;28;20028;-64
2024/03/11 03:18:19;;;;;;;47.72;42.63;;;10.60;99.90;;;;;;2084946;28;20033;-64
2024/03/11 03:19:20;;;;;;;45.78;40.78;;;10.70;99.90;;;;;;2085287;28;20033;-64
2024/03/11 03:20:20;;;;;;;49.08;41.75;;;10.70;99.90;;;;;;2077177;28;20056;-64
2024/03/11 03:21:21;;;;;;;46.10;40.28;;;10.70;99.90;;;;;;2077951;28;20033;-64
2024/03/11 03:22:22;;;;;;;49.03;41.60;;;10.60;99.90;;;;;;2084851;28;20056;-64
2024/03/11 03:23:22;;;;;;;47.10;42.00;;;10.70;99.90;;;;;;2086187;28;20843;-64
2024/03/11 03:24:26;;;;;;;48.85;42.42;;;10.70;99.90;;;;;;2085183;28;20486;-64
2024/03/11 03:25:32;;;;;;;49.58;42.63;;;10.70;99.90;;;;;;2086053;28;20037;-64
2024/03/11 03:26:35;;;;;;;51.15;43.53;;;10.60;99.90;;;;;;2084017;28;20079;-64
2024/03/11 03:27:35;;;;;;;48.75;41.60;;;10.60;99.90;;;;;;2086310;28;20060;-64
2024/03/11 03:28:37;;;;;;;44.10;39.03;;;10.60;99.90;;;;;;2084154;28;20038;-64
2024/03/11 03:29:40;;;;;;;45.78;40.50;;;10.60;99.90;;;;;;2084017;28;20131;-66
2024/03/11 03:30:42;;;;;;;49.58;43.45;;;10.60;99.90;;;;;;2084120;28;20369;-64
2024/03/11 03:31:43;;;;;;;42.28;37.70;;;10.60;99.90;;;;;;2085645;28;20017;-64
2024/03/11 03:32:43;;;;;;;43.70;39.10;;;10.60;99.90;;;;;;2084287;28;20045;-64
2024/03/11 03:33:44;;;;;;;44.30;39.03;;;10.60;99.90;;;;;;2084311;28;20087;-65
2024/03/11 03:34:45;;;;;;;48.33;41.78;;;10.60;99.90;;;;;;2084505;28;20032;-64
2024/03/11 03:35:45;;;;;;;50.90;43.05;;;10.60;99.90;;;;;;2087812;28;20052;-64
2024/03/11 03:36:46;;;;;;;44.28;39.35;;;10.60;99.90;;;;;;2085489;28;20079;-64
2024/03/11 03:37:46;;;;;;;47.53;41.78;;;10.60;99.90;;;;;;2087036;28;20044;-64
2024/03/11 03:38:47;;;;;;;47.90;41.65;;;10.60;99.90;;;;;;2084969;28;20036;-65
2024/03/11 03:39:48;;;;;;;45.38;38.58;;;10.70;99.90;;;;;;2083944;28;20052;-66
2024/03/11 03:40:48;;;;;;;43.63;38.60;;;10.60;99.90;;;;;;2085363;28;20111;-64
2024/03/11 03:41:50;;;;;;;49.17;43.25;;;10.70;99.90;;;;;;2084448;28;20044;-65
2024/03/11 03:42:50;;;;;;;48.92;42.08;;;10.70;99.90;;;;;;2084837;28;20025;-65
2024/03/11 03:43:51;;;;;;;43.60;38.03;;;10.70;99.90;;;;;;2085473;28;20025;-64
2024/03/11 03:44:52;;;;;;;45.80;40.83;;;10.70;99.90;;;;;;2083674;28;20017;-66
2024/03/11 03:45:53;;;;;;;49.83;43.13;;;10.70;99.90;;;;;;2085486;28;20017;-64
2024/03/11 03:46:55;;;;;;;48.58;41.50;;;10.70;99.90;;;;;;2084383;28;20068;-64
2024/03/11 03:47:55;;;;;;;47.38;41.50;;;10.70;99.90;;;;;;2085997;28;20025;-64
2024/03/11 03:48:59;;;;;;;44.53;39.70;;;10.70;99.90;;;;;;2086458;28;20481;-64
2024/03/11 03:49:59;;;;;;;47.08;41.67;;;10.70;99.90;;;;;;2083812;28;20420;-65
2024/03/11 03:51:03;;;;;;;40.58;36.13;;;10.70;99.90;;;;;;2084822;28;20112;-64
2024/03/11 03:52:05;;;;;;;44.25;39.17;;;10.70;99.90;;;;;;2086419;28;20026;-65
2024/03/11 03:53:05;;;;;;;49.35;42.63;;;10.70;99.90;;;;;;2085388;28;20083;-64
2024/03/11 03:54:06;;;;;;;48.58;43.35;;;10.70;99.90;;;;;;2086251;28;20029;-64
2024/03/11 03:55:11;;;;;;;40.85;35.95;;;10.70;99.90;;;;;;2084078;28;20119;-65
2024/03/11 03:56:11;;;;;;;44.63;39.83;;;10.70;99.90;;;;;;2085767;28;20025;-65
2024/03/11 03:57:12;;;;;;;51.17;43.83;;;10.70;99.90;;;;;;2083407;28;20032;-65
2024/03/11 03:58:13;;;;;;;48.25;42.90;;;10.70;99.90;;;;;;2083449;28;20024;-64
2024/03/11 03:59:13;;;;;;;48.20;41.63;;;10.70;99.90;;;;;;2085316;28;20135;-66
2024/03/11 04:00:17;;;;;;;47.63;40.08;;;10.70;99.90;;;;;;2084465;28;20029;-64
2024/03/11 04:01:18;;;;;;;45.92;40.60;;;10.70;99.90;;;;;;2083982;28;20021;-65
2024/03/11 04:02:18;;;;;;;46.40;40.85;;;10.70;99.90;;;;;;2085593;28;20029;-65
2024/03/11 04:03:20;;;;;;;42.60;38.00;;;10.70;99.90;;;;;;2083550;28;20727;-66
2024/03/11 04:04:21;;;;;;;45.03;40.17;;;10.70;99.90;;;;;;2084957;28;20014;-64
2024/03/11 04:05:26;;;;;;;43.50;38.42;;;10.70;99.90;;;;;;2075740;28;20029;-64
2024/03/11 04:06:26;;;;;;;40.60;34.65;;;10.70;99.90;;;;;;2078348;28;20033;-65
2024/03/11 04:07:27;;;;;;;44.88;39.35;;;10.70;99.90;;;;;;2082134;28;20078;-65
2024/03/11 04:08:27;;;;;;;47.30;42.05;;;10.70;99.90;;;;;;2082200;28;20025;-65
2024/03/11 04:09:28;;;;;;;48.65;43.35;;;10.70;99.90;;;;;;2086017;28;20059;-64
2024/03/11 04:10:29;;;;;;;48.40;43.00;;;10.70;99.90;;;;;;2082590;28;20098;-65
2024/03/11 04:11:29;;;;;;;43.05;38.55;;;10.70;99.90;;;;;;2085288;28;20032;-65
2024/03/11 04:12:30;;;;;;;48.65;41.85;;;10.70;99.90;;;;;;2083553;28;20037;-65
2024/03/11 04:13:31;;;;;;;46.65;40.45;;;10.70;99.90;;;;;;2084231;28;20434;-64
2024/03/11 04:14:32;;;;;;;45.55;40.67;;;10.70;99.90;;;;;;2084728;28;20036;-64
2024/03/11 04:15:33;;;;;;;47.72;42.50;;;10.70;99.90;;;;;;2083828;28;20113;-65
2024/03/11 04:16:35;;;;;;;51.80;43.25;;;10.70;99.90;;;;;;2083908;28;20063;-65
2024/03/11 04:17:35;;;;;;;50.60;43.33;;;10.70;99.90;;;;;;2078517;28;20041;-65
2024/03/11 04:18:37;;;;;;;53.72;46.97;;;10.70;99.90;;;;;;2077122;28;20053;-65
2024/03/11 04:19:37;;;;;;;54.28;45.63;;;10.70;99.90;;;;;;2086323;28;20029;-64
2024/03/11 04:20:39;;;;;;;53.45;45.80;;;10.60;99.90;;;;;;2083788;28;20061;-65
2024/03/11 04:21:40;;;;;;;52.30;46.60;;;10.60;99.90;;;;;;2083603;28;20065;-64
2024/03/11 04:22:42;;;;;;;55.50;47.65;;;10.60;99.90;;;;;;2085420;28;20573;-65
2024/03/11 04:23:44;;;;;;;53.42;45.75;;;10.60;99.90;;;;;;2085548;28;20029;-64
2024/03/11 04:24:44;;;;;;;54.80;45.08;;;10.60;99.90;;;;;;2085116;28;20505;-64
2024/03/11 04:25:45;;;;;;;52.75;46.60;;;10.60;99.90;;;;;;2085209;28;20912;-64
2024/03/11 04:26:47;;;;;;;57.42;47.42;;;10.60;99.90;;;;;;2084758;28;20033;-64
2024/03/11 04:27:50;;;;;;;53.13;45.67;;;10.60;99.90;;;;;;2085382;28;20021;-64
2024/03/11 04:28:51;;;;;;;53.15;45.38;;;10.60;99.90;;;;;;2085493;28;20838;-64
2024/03/11 04:29:53;;;;;;;50.10;44.10;;;10.60;99.90;;;;;;2085077;28;20343;-65
2024/03/11 04:30:55;;;;;;;49.55;43.03;;;10.60;99.90;;;;;;2084986;28;20029;-64
2024/03/11 04:31:57;;;;;;;50.88;44.90;;;10.60;99.90;;;;;;2083933;28;20029;-64
2024/03/11 04:32:58;;;;;;;52.10;43.83;;;10.60;99.90;;;;;;2084018;28;20363;-64
2024/03/11 04:33:59;;;;;;;51.25;44.70;;;10.60;99.90;;;;;;2084681;28;20088;-64
2024/03/11 04:35:01;;;;;;;42.72;38.13;;;10.60;99.90;;;;;;2083563;28;20036;-65
2024/03/11 04:36:01;;;;;;;42.85;37.75;;;10.60;99.90;;;;;;2084107;28;20051;-66
2024/03/11 04:37:02;;;;;;;50.90;45.33;;;10.60;99.90;;;;;;2084705;28;20025;-65
2024/03/11 04:38:08;;;;;;;50.85;43.58;;;10.60;99.90;;;;;;2087241;28;20037;-64
2024/03/11 04:39:14;;;;;;;50.17;44.67;;;10.60;99.90;;;;;;2083503;28;20030;-66
2024/03/11 04:40:14;;;;;;;53.97;44.25;;;10.60;99.90;;;;;;2084353;28;20074;-64
2024/03/11 04:41:15;;;;;;;51.45;44.70;;;10.60;99.90;;;;;;2084936;28;20075;-64
2024/03/11 04:42:17;;;;;;;50.53;43.55;;;10.60;99.90;;;;;;2084711;28;20029;-66
2024/03/11 04:43:18;;;;;;;47.97;42.70;;;10.60;99.90;;;;;;2084189;28;20037;-64
2024/03/11 04:44:19;;;;;;;48.15;42.95;;;10.60;99.90;;;;;;2083626;28;20460;-64
2024/03/11 04:45:21;;;;;;;57.08;47.15;;;10.60;99.90;;;;;;2083878;28;20027;-65
2024/03/11 04:46:22;;;;;;;53.72;47.28;;;10.60;99.90;;;;;;2083272;28;20023;-64
2024/03/11 04:47:23;;;;;;;52.17;45.97;;;10.60;99.90;;;;;;2085315;28;20029;-65
2024/03/11 04:48:24;;;;;;;52.60;46.63;;;10.60;99.90;;;;;;2085978;28;20018;-64
2024/03/11 04:49:27;;;;;;;54.17;46.33;;;10.60;99.90;;;;;;2086627;28;20037;-64
2024/03/11 04:50:30;;;;;;;54.25;46.10;;;10.60;99.90;;;;;;2085635;28;20039;-66
2024/03/11 04:51:32;;;;;;;51.72;45.97;;;10.60;99.90;;;;;;2086943;28;20017;-64
2024/03/11 04:52:33;;;;;;;52.63;45.80;;;10.60;99.90;;;;;;2084479;28;20022;-64
2024/03/11 04:53:34;;;;;;;43.08;37.10;;;10.60;99.90;;;;;;2087533;28;20037;-65
2024/03/11 04:54:34;;;;;;;48.45;43.13;;;10.60;99.90;;;;;;2082643;28;20028;-64
2024/03/11 04:55:36;;;;;;;42.58;36.65;;;10.60;99.90;;;;;;2078490;28;20029;-64
2024/03/11 04:56:37;;;;;;;44.50;39.78;;;10.60;99.90;;;;;;2087146;28;20101;-65
2024/03/11 04:57:38;;;;;;;43.83;39.03;;;10.60;99.90;;;;;;2085320;28;20112;-65
2024/03/11 04:58:38;;;;;;;39.00;34.83;;;10.60;99.90;;;;;;2085287;28;20025;-65
2024/03/11 04:59:40;;;;;;;47.65;42.15;;;10.60;99.90;;;;;;2085805;28;20030;-64
2024/03/11 05:00:41;;;;;;;46.42;40.83;;;10.60;99.90;;;;;;2085093;28;20034;-64
2024/03/11 05:01:42;;;;;;;51.58;44.58;;;10.70;99.90;;;;;;2085892;28;20067;-65
2024/03/11 05:02:43;;;;;;;46.83;41.28;;;10.60;99.90;;;;;;2085886;28;20415;-64
2024/03/11 05:03:44;;;;;;;49.05;43.72;;;10.60;99.90;;;;;;2084632;28;20056;-65
2024/03/11 05:04:44;;;;;;;52.03;46.05;;;10.70;99.90;;;;;;2087101;28;20439;-64
2024/03/11 05:05:46;;;;;;;45.67;40.60;;;10.70;99.90;;;;;;2085998;28;20516;-64
2024/03/11 05:06:46;;;;;;;47.88;42.65;;;10.60;99.90;;;;;;2085760;28;20022;-64
2024/03/11 05:07:49;;;;;;;47.55;41.88;;;10.70;99.90;;;;;;2086428;28;20744;-64
2024/03/11 05:08:50;;;;;;;48.03;42.25;;;10.70;99.90;;;;;;2086706;28;20073;-64
2024/03/11 05:09:50;;;;;;;52.20;44.65;;;10.60;99.90;;;;;;2085351;28;20034;-64
2024/03/11 05:10:51;;;;;;;49.17;42.55;;;10.70;99.90;;;;;;2087266;28;20037;-64
2024/03/11 05:11:51;;;;;;;52.80;43.72;;;10.70;99.90;;;;;;2085422;28;20444;-64
2024/03/11 05:12:52;;;;;;;50.03;44.28;;;10.70;99.90;;;;;;2085382;28;20742;-65